createdAt,value
2018-07-23T00:01:32.236Z,58.80
2018-07-23T00:04:00.598Z,58.30
2018-07-23T00:06:28.967Z,58.10
2018-07-23T00:08:57.373Z,57.80
2018-07-23T00:11:25.716Z,58.20
2018-07-23T00:13:54.794Z,58.60
2018-07-23T00:16:23.290Z,58.50
2018-07-23T00:21:19.827Z,59.30
2018-07-23T00:23:48.214Z,59.30
2018-07-23T00:26:16.636Z,59.70
2018-07-23T00:28:45.636Z,59.70
2018-07-23T00:31:14.041Z,60.60
2018-07-23T00:33:42.399Z,60.50
2018-07-23T00:36:10.782Z,60.50
2018-07-23T00:38:39.219Z,60.50
2018-07-23T00:41:07.617Z,60.60
2018-07-23T00:43:36.053Z,60.10
2018-07-23T00:46:05.355Z,59.70
2018-07-23T00:48:33.719Z,59.40
2018-07-23T00:51:02.133Z,59.40
2018-07-23T00:55:59.121Z,58.50
2018-07-23T00:58:28.331Z,58.00
2018-07-23T01:00:56.776Z,57.80
2018-07-23T01:03:25.211Z,57.70
2018-07-23T01:05:53.591Z,57.70
2018-07-23T01:08:23.167Z,57.60
2018-07-23T01:10:52.521Z,57.60
2018-07-23T01:13:20.965Z,57.60
2018-07-23T01:15:49.358Z,57.80
2018-07-23T01:18:17.758Z,58.20
2018-07-23T01:20:46.140Z,58.00
2018-07-23T01:23:14.509Z,57.80
2018-07-23T01:25:42.855Z,57.90
2018-07-23T01:28:11.237Z,57.70
2018-07-23T01:30:39.610Z,57.70
2018-07-23T01:33:08.015Z,57.50
2018-07-23T01:35:36.359Z,57.30
2018-07-23T01:38:04.802Z,57.30
2018-07-23T01:40:33.225Z,57.30
2018-07-23T01:43:01.644Z,58.50
2018-07-23T01:45:30.111Z,58.80
2018-07-23T01:47:58.507Z,58.80
2018-07-23T01:50:26.881Z,58.80
2018-07-23T01:52:55.261Z,58.90
2018-07-23T01:55:24.164Z,58.80
2018-07-23T01:57:52.538Z,58.40
2018-07-23T02:00:20.961Z,58.10
2018-07-23T02:02:49.472Z,58.10
2018-07-23T02:05:17.898Z,58.80
2018-07-23T02:07:46.263Z,58.60
2018-07-23T02:10:15.561Z,58.60
2018-07-23T02:12:44.572Z,58.50
2018-07-23T02:15:12.959Z,58.50
2018-07-23T02:17:41.370Z,58.30
2018-07-23T02:20:09.771Z,58.30
2018-07-23T02:22:39.428Z,58.60
2018-07-23T02:25:07.846Z,58.60
2018-07-23T02:27:36.218Z,58.50
2018-07-23T02:30:05.445Z,58.50
2018-07-23T02:32:33.840Z,58.50
2018-07-23T02:35:02.264Z,58.60
2018-07-23T02:37:30.628Z,58.90
2018-07-23T02:39:59.069Z,59.10
2018-07-23T02:42:27.600Z,58.80
2018-07-23T02:44:56.703Z,59.00
2018-07-23T02:47:26.906Z,59.20
2018-07-23T02:49:55.282Z,59.30
2018-07-23T02:52:23.753Z,58.90
2018-07-23T02:57:20.408Z,58.50
2018-07-23T02:59:48.875Z,58.40
2018-07-23T03:02:17.322Z,58.40
2018-07-23T03:04:45.735Z,58.40
2018-07-23T03:07:14.171Z,58.40
2018-07-23T03:09:42.553Z,58.30
2018-07-23T03:12:11.281Z,58.30
2018-07-23T03:14:39.669Z,58.30
2018-07-23T03:17:08.746Z,58.30
2018-07-23T03:19:37.180Z,58.20
2018-07-23T03:22:05.614Z,58.20
2018-07-23T03:24:34.053Z,58.20
2018-07-23T03:27:02.639Z,58.20
2018-07-23T03:29:31.091Z,58.10
2018-07-23T03:31:59.480Z,58.10
2018-07-23T03:34:27.904Z,58.10
2018-07-23T03:36:56.896Z,58.10
2018-07-23T03:39:25.308Z,58.00
2018-07-23T03:41:53.662Z,58.60
2018-07-23T03:44:22.202Z,58.00
2018-07-23T03:46:50.720Z,57.90
2018-07-23T03:49:19.165Z,57.90
2018-07-23T03:51:47.564Z,57.90
2018-07-23T03:54:15.948Z,57.90
2018-07-23T03:56:44.376Z,57.90
2018-07-23T04:01:40.922Z,57.90
2018-07-23T04:04:09.371Z,58.30
2018-07-23T04:06:37.783Z,58.60
2018-07-23T04:09:07.665Z,59.40
2018-07-23T04:11:36.124Z,61.00
2018-07-23T04:14:04.550Z,60.80
2018-07-23T04:19:01.053Z,61.00
2018-07-23T04:21:29.474Z,61.10
2018-07-23T04:23:57.904Z,61.00
2018-07-23T04:26:26.807Z,60.90
2018-07-23T04:28:55.167Z,60.80
2018-07-23T04:31:23.558Z,60.70
2018-07-23T04:33:51.972Z,60.50
2018-07-23T04:36:20.418Z,60.30
2018-07-23T04:38:48.841Z,60.20
2018-07-23T04:41:17.258Z,60.00
2018-07-23T04:43:45.668Z,60.00
2018-07-23T04:46:14.027Z,60.00
2018-07-23T04:48:42.517Z,60.00
2018-07-23T04:51:10.951Z,60.20
2018-07-23T04:53:39.321Z,60.50
2018-07-23T04:56:07.782Z,60.70
2018-07-23T04:58:36.126Z,60.70
2018-07-23T05:01:05.729Z,60.80
2018-07-23T05:03:41.042Z,60.80
2018-07-23T05:08:37.553Z,61.00
2018-07-23T05:11:05.982Z,60.90
2018-07-23T05:13:34.390Z,61.30
2018-07-23T05:16:02.995Z,60.70
2018-07-23T05:18:31.498Z,60.90
2018-07-23T05:21:00.648Z,61.00
2018-07-23T05:23:29.030Z,61.10
2018-07-23T05:25:58.168Z,61.00
2018-07-23T05:28:26.570Z,60.80
2018-07-23T05:30:54.933Z,60.50
2018-07-23T05:33:23.340Z,60.60
2018-07-23T05:35:51.844Z,60.70
2018-07-23T05:38:21.319Z,60.70
2018-07-23T05:40:49.656Z,60.80
2018-07-23T05:43:18.151Z,60.80
2018-07-23T05:45:46.616Z,61.20
2018-07-23T05:48:15.124Z,61.00
2018-07-23T05:50:43.588Z,61.10
2018-07-23T05:53:12.584Z,61.30
2018-07-23T05:55:41.015Z,61.10
2018-07-23T05:58:09.439Z,61.30
2018-07-23T06:00:39.235Z,61.20
2018-07-23T06:03:07.712Z,61.20
2018-07-23T06:05:36.123Z,60.80
2018-07-23T06:08:04.686Z,61.00
2018-07-23T06:10:33.205Z,60.90
2018-07-23T06:13:01.675Z,61.00
2018-07-23T06:15:30.027Z,61.20
2018-07-23T06:17:58.521Z,61.30
2018-07-23T06:20:27.419Z,61.10
2018-07-23T06:22:55.801Z,61.10
2018-07-23T06:25:24.159Z,61.00
2018-07-23T06:27:52.935Z,61.30
2018-07-23T06:30:21.360Z,61.00
2018-07-23T06:35:17.983Z,59.80
2018-07-23T06:37:46.384Z,60.50
2018-07-23T06:40:14.817Z,59.90
2018-07-23T06:42:44.084Z,59.90
2018-07-23T06:45:12.599Z,60.00
2018-07-23T06:47:41.037Z,59.10
2018-07-23T06:50:09.413Z,59.30
2018-07-23T06:52:37.839Z,59.10
2018-07-23T06:55:06.261Z,58.80
2018-07-23T06:57:34.711Z,58.50
2018-07-23T07:00:03.688Z,57.70
2018-07-23T07:02:32.198Z,56.00
2018-07-23T07:05:00.595Z,56.00
2018-07-23T07:07:29.054Z,56.00
2018-07-23T07:09:57.444Z,56.80
2018-07-23T07:12:25.821Z,56.80
2018-07-23T07:14:54.489Z,57.10
2018-07-23T07:17:22.870Z,56.60
2018-07-23T07:19:51.300Z,56.80
2018-07-23T07:22:20.288Z,56.30
2018-07-23T07:24:48.692Z,55.90
2018-07-23T07:27:17.139Z,56.10
2018-07-23T07:29:45.528Z,55.60
2018-07-23T07:34:43.125Z,54.80
2018-07-23T07:37:18.169Z,52.90
2018-07-23T07:39:46.641Z,50.20
2018-07-23T07:42:20.055Z,48.30
2018-07-23T07:44:48.757Z,47.80
2018-07-23T07:47:17.687Z,48.00
2018-07-23T07:49:46.127Z,47.60
2018-07-23T07:52:14.669Z,47.00
2018-07-23T07:54:45.407Z,46.10
2018-07-23T07:57:13.785Z,46.60
2018-07-23T07:59:42.209Z,45.70
2018-07-23T08:04:39.591Z,45.00
2018-07-23T08:07:08.095Z,43.60
2018-07-23T08:09:36.542Z,44.40
2018-07-23T08:12:04.895Z,43.30
2018-07-23T08:14:33.271Z,43.50
2018-07-23T08:17:01.652Z,42.80
2018-07-23T08:19:29.989Z,42.90
2018-07-23T08:21:58.417Z,42.50
2018-07-23T08:24:26.739Z,42.40
2018-07-23T08:26:55.092Z,41.70
2018-07-23T08:29:23.497Z,41.90
2018-07-23T08:31:52.004Z,42.20
2018-07-23T08:34:20.768Z,41.60
2018-07-23T08:36:49.304Z,40.70
2018-07-23T08:39:18.503Z,41.00
2018-07-23T08:41:46.933Z,41.00
2018-07-23T08:44:15.419Z,40.60
2018-07-23T08:46:43.870Z,41.40
2018-07-23T08:49:12.217Z,40.00
2018-07-23T08:51:41.144Z,40.90
2018-07-23T08:54:09.612Z,39.40
2018-07-23T08:56:38.004Z,38.90
2018-07-23T08:59:06.433Z,38.80
2018-07-23T09:01:35.483Z,38.70
2018-07-23T09:04:03.865Z,38.60
2018-07-23T09:06:32.313Z,38.10
2018-07-23T09:09:00.666Z,38.20
2018-07-23T09:11:29.047Z,37.50
2018-07-23T09:13:57.392Z,37.60
2018-07-23T09:16:25.858Z,37.70
2018-07-23T09:18:54.299Z,36.40
2018-07-23T09:21:22.636Z,36.40
2018-07-23T09:23:51.798Z,37.10
2018-07-23T09:26:20.132Z,35.50
2018-07-23T09:28:48.505Z,36.50
2018-07-23T09:31:16.854Z,35.50
2018-07-23T09:33:45.320Z,34.20
2018-07-23T09:36:13.707Z,32.70
2018-07-23T09:38:42.707Z,33.10
2018-07-23T09:41:11.168Z,32.70
2018-07-23T09:43:39.626Z,32.40
2018-07-23T09:46:07.968Z,31.90
2018-07-23T09:48:36.358Z,30.90
2018-07-23T09:51:04.695Z,31.70
2018-07-23T09:53:33.371Z,31.40
2018-07-23T09:56:01.845Z,31.00
2018-07-23T09:58:30.268Z,30.10
2018-07-23T10:01:17.681Z,30.20
2018-07-23T10:03:46.366Z,30.50
2018-07-23T10:06:14.734Z,29.90
2018-07-23T10:08:43.264Z,29.00
2018-07-23T10:11:11.640Z,29.60
2018-07-23T10:13:40.015Z,31.10
2018-07-23T10:16:08.449Z,28.40
2018-07-23T10:18:37.045Z,28.90
2018-07-23T10:21:05.533Z,29.20
2018-07-23T10:23:33.957Z,29.30
2018-07-23T10:26:02.340Z,29.40
2018-07-23T10:28:30.726Z,30.10
2018-07-23T10:30:59.206Z,30.60
2018-07-23T10:33:27.580Z,29.50
2018-07-23T10:35:56.023Z,28.90
2018-07-23T10:40:52.692Z,29.60
2018-07-23T10:43:21.063Z,28.90
2018-07-23T10:45:49.558Z,29.30
2018-07-23T10:50:46.124Z,28.00
2018-07-23T10:53:14.560Z,28.00
2018-07-23T10:55:43.017Z,27.50
2018-07-23T10:58:11.411Z,27.10
2018-07-23T11:00:39.894Z,27.20
2018-07-23T11:03:08.313Z,27.30
2018-07-23T11:05:36.744Z,27.20
2018-07-23T11:08:05.253Z,27.10
2018-07-23T11:13:01.799Z,26.80
2018-07-23T11:15:30.223Z,26.00
2018-07-23T11:17:59.345Z,25.50
2018-07-23T11:20:27.727Z,25.70
2018-07-23T11:22:56.937Z,25.50
2018-07-23T11:25:39.177Z,26.10
2018-07-23T11:27:54.083Z,25.70
2018-07-23T11:30:22.522Z,25.70
2018-07-23T11:32:50.925Z,25.70
2018-07-23T11:35:19.269Z,25.70
2018-07-23T11:37:47.683Z,26.10
2018-07-23T11:40:16.112Z,25.60
2018-07-23T11:42:44.596Z,25.40
2018-07-23T11:45:12.995Z,25.50
2018-07-23T11:47:41.400Z,24.90
2018-07-23T11:50:09.869Z,25.60
2018-07-23T11:52:38.576Z,25.00
2018-07-23T11:55:06.946Z,24.70
2018-07-23T11:57:35.348Z,24.10
2018-07-23T12:00:03.907Z,23.60
2018-07-23T12:02:32.440Z,23.40
2018-07-23T12:05:00.927Z,23.00
2018-07-23T12:07:29.340Z,22.70
2018-07-23T12:09:57.706Z,22.90
2018-07-23T12:12:26.133Z,21.50
2018-07-23T12:14:54.524Z,21.20
2018-07-23T12:17:23.058Z,22.30
2018-07-23T12:19:51.869Z,23.00
2018-07-23T12:22:20.429Z,23.60
2018-07-23T12:24:48.867Z,22.80
2018-07-23T12:27:17.939Z,22.50
2018-07-23T12:29:46.298Z,24.00
2018-07-23T12:32:14.707Z,24.80
2018-07-23T12:34:44.308Z,25.30
2018-07-23T12:37:12.753Z,26.00
2018-07-23T12:39:41.159Z,26.10
2018-07-23T12:42:09.529Z,26.30
2018-07-23T12:44:38.041Z,25.00
2018-07-23T12:47:07.884Z,24.30
2018-07-23T12:49:36.228Z,24.40
2018-07-23T12:52:04.571Z,25.30
2018-07-23T12:54:33.013Z,25.30
2018-07-23T12:57:01.428Z,24.40
2018-07-23T12:59:29.866Z,24.60
2018-07-23T13:01:58.293Z,24.60
2018-07-23T13:04:26.717Z,25.70
2018-07-23T13:06:55.152Z,25.20
2018-07-23T13:09:30.312Z,25.20
2018-07-23T13:11:58.787Z,25.90
2018-07-23T13:14:27.213Z,25.70
2018-07-23T13:16:55.673Z,25.90
2018-07-23T13:19:24.127Z,25.90
2018-07-23T13:21:53.362Z,24.90
2018-07-23T13:26:50.976Z,26.20
2018-07-23T13:29:19.422Z,25.30
2018-07-23T13:31:47.839Z,24.60
2018-07-23T13:34:16.984Z,25.10
2018-07-23T13:36:45.384Z,23.90
2018-07-23T13:39:14.248Z,24.20
2018-07-23T13:41:42.697Z,23.90
2018-07-23T13:44:12.012Z,23.00
2018-07-23T13:46:40.844Z,22.80
2018-07-23T13:49:09.503Z,22.60
2018-07-23T13:51:37.935Z,21.70
2018-07-23T13:54:06.383Z,22.20
2018-07-23T13:56:34.800Z,20.60
2018-07-23T13:59:03.241Z,20.80
2018-07-23T14:01:31.677Z,20.60
2018-07-23T14:04:00.121Z,20.40
2018-07-23T14:08:56.693Z,19.90
2018-07-23T14:11:25.447Z,21.00
2018-07-23T14:13:53.924Z,21.70
2018-07-23T14:16:22.363Z,21.10
2018-07-23T14:18:50.747Z,21.10
2018-07-23T14:21:19.145Z,21.30
2018-07-23T14:23:47.621Z,21.10
2018-07-23T14:26:16.819Z,19.60
2018-07-23T14:29:03.462Z,19.80
2018-07-23T14:31:31.880Z,20.00
2018-07-23T14:34:00.332Z,20.00
2018-07-23T14:38:58.085Z,20.50
2018-07-23T14:41:26.507Z,21.20
2018-07-23T14:43:55.105Z,20.20
2018-07-23T14:48:55.763Z,21.50
2018-07-23T14:51:34.683Z,21.20
2018-07-23T14:54:03.565Z,20.10
2018-07-23T14:56:32.228Z,20.20
2018-07-23T14:59:00.591Z,20.20
2018-07-23T15:01:28.991Z,20.40
2018-07-23T15:03:57.405Z,20.60
2018-07-23T15:06:25.833Z,21.00
2018-07-23T15:08:54.304Z,20.50
2018-07-23T15:11:22.816Z,19.00
2018-07-23T15:13:51.234Z,19.10
2018-07-23T15:16:19.817Z,19.20
2018-07-23T15:18:48.182Z,19.60
2018-07-23T15:21:16.661Z,19.60
2018-07-23T15:23:45.055Z,20.50
2018-07-23T15:26:13.515Z,21.10
2018-07-23T15:28:41.944Z,21.10
2018-07-23T15:31:10.467Z,20.80
2018-07-23T15:33:41.207Z,21.10
2018-07-23T15:36:09.583Z,21.40
2018-07-23T15:38:38.053Z,21.50
2018-07-23T15:41:06.433Z,20.60
2018-07-23T15:43:34.854Z,21.80
2018-07-23T15:46:03.386Z,21.30
2018-07-23T15:48:31.658Z,20.80
2018-07-23T15:51:00.049Z,21.60
2018-07-23T15:55:56.699Z,21.30
2018-07-23T15:58:25.087Z,22.10
2018-07-23T16:00:53.449Z,21.90
2018-07-23T16:03:21.867Z,21.80
2018-07-23T16:05:50.383Z,20.60
2018-07-23T16:08:18.770Z,21.20
2018-07-23T16:10:47.234Z,22.10
2018-07-23T16:13:15.835Z,22.30
2018-07-23T16:15:44.477Z,21.80
2018-07-23T16:18:13.142Z,21.40
2018-07-23T16:20:41.527Z,22.20
2018-07-23T16:23:10.805Z,22.50
2018-07-23T16:25:39.231Z,21.80
2018-07-23T16:28:07.649Z,21.80
2018-07-23T16:30:36.139Z,22.00
2018-07-23T16:33:05.622Z,22.00
2018-07-23T16:35:34.025Z,22.00
2018-07-23T16:38:02.483Z,21.60
2018-07-23T16:40:30.933Z,21.50
2018-07-23T16:42:59.401Z,21.40
2018-07-23T16:45:27.860Z,21.70
2018-07-23T16:47:56.281Z,22.70
2018-07-23T16:50:24.722Z,21.90
2018-07-23T16:52:53.227Z,21.70
2018-07-23T16:55:21.636Z,22.00
2018-07-23T16:57:50.843Z,21.60
2018-07-23T17:00:19.304Z,22.00
2018-07-23T17:02:48.442Z,21.70
2018-07-23T17:05:16.881Z,22.20
2018-07-23T17:07:45.280Z,22.70
2018-07-23T17:10:14.078Z,23.30
2018-07-23T17:12:42.486Z,23.20
2018-07-23T17:15:11.916Z,23.20
2018-07-23T17:17:40.376Z,23.80
2018-07-23T17:22:36.896Z,24.00
2018-07-23T17:25:05.360Z,23.80
2018-07-23T17:27:34.774Z,23.60
2018-07-23T17:30:03.294Z,23.20
2018-07-23T17:32:31.747Z,23.50
2018-07-23T17:35:00.236Z,23.50
2018-07-23T17:37:30.135Z,23.80
2018-07-23T17:42:27.191Z,24.50
2018-07-23T17:44:55.635Z,24.60
2018-07-23T17:47:27.645Z,24.90
2018-07-23T17:49:56.103Z,25.40
2018-07-23T17:52:24.559Z,25.50
2018-07-23T17:54:53.094Z,25.60
2018-07-23T17:57:22.713Z,26.30
2018-07-23T17:59:56.685Z,26.60
2018-07-23T18:02:25.139Z,26.80
2018-07-23T18:04:53.565Z,27.50
2018-07-23T18:07:22.156Z,27.40
2018-07-23T18:09:51.529Z,28.20
2018-07-23T18:12:28.784Z,28.80
2018-07-23T18:15:10.397Z,29.00
2018-07-23T18:17:46.027Z,28.20
2018-07-23T18:22:46.058Z,28.90
2018-07-23T18:25:14.601Z,29.10
2018-07-23T18:38:03.325Z,29.60
2018-07-23T18:40:36.989Z,29.80
2018-07-23T18:43:05.767Z,29.70
2018-07-23T18:45:40.263Z,29.90
2018-07-23T18:50:39.961Z,29.90
2018-07-23T18:53:08.831Z,29.80
2018-07-23T18:56:05.858Z,29.80
2018-07-23T18:58:39.393Z,30.00
2018-07-23T19:01:08.008Z,30.40
2018-07-23T19:06:08.287Z,31.00
2018-07-23T19:08:36.840Z,31.10
2018-07-23T19:11:05.715Z,31.80
2018-07-23T19:13:35.534Z,32.40
2018-07-23T19:18:46.811Z,32.50
2018-07-23T19:21:16.536Z,32.80
2018-07-23T19:23:45.090Z,32.90
2018-07-23T19:26:15.449Z,33.40
2018-07-23T19:31:13.099Z,34.00
2018-07-23T19:33:44.430Z,34.60
2018-07-23T19:36:12.928Z,35.20
2018-07-23T19:38:43.422Z,35.10
2018-07-23T19:41:11.838Z,35.00
2018-07-23T19:43:40.232Z,35.30
2018-07-23T19:48:37.732Z,36.10
2018-07-23T19:51:06.304Z,36.60
2018-07-23T19:53:35.926Z,37.00
2018-07-23T19:58:32.591Z,37.70
2018-07-23T20:01:03.147Z,37.50
2018-07-23T20:03:31.809Z,37.30
2018-07-23T20:06:00.307Z,37.20
2018-07-23T20:08:29.171Z,37.40
2018-07-23T20:11:06.869Z,37.70
2018-07-23T20:16:06.367Z,38.90
2018-07-23T20:18:35.516Z,39.40
2018-07-23T20:21:08.012Z,39.70
2018-07-23T20:23:36.443Z,40.10
2018-07-23T20:26:04.958Z,40.30
2018-07-23T20:28:35.917Z,40.60
2018-07-23T20:31:05.375Z,40.90
2018-07-23T20:33:37.390Z,41.20
2018-07-23T20:36:07.143Z,41.20
2018-07-23T20:38:36.555Z,41.10
2018-07-23T20:41:11.343Z,41.10
2018-07-23T20:43:40.467Z,41.20
2018-07-23T20:46:10.129Z,41.20
2018-07-23T20:48:39.931Z,41.00
2018-07-23T20:51:08.375Z,40.90
2018-07-23T20:53:37.206Z,41.20
2018-07-23T20:56:06.729Z,41.50
2018-07-23T20:58:35.173Z,42.10
2018-07-23T21:01:10.301Z,42.80
2018-07-23T21:03:39.725Z,43.20
2018-07-23T21:06:08.236Z,43.20
2018-07-23T21:08:37.123Z,43.10
2018-07-23T21:11:06.613Z,43.20
2018-07-23T21:13:35.138Z,43.50
2018-07-23T21:16:06.100Z,43.30
2018-07-23T21:18:34.742Z,43.50
2018-07-23T21:21:11.563Z,43.70
2018-07-23T21:23:40.279Z,44.10
2018-07-23T21:26:10.044Z,43.50
2018-07-23T21:28:38.475Z,43.30
2018-07-23T21:31:08.806Z,43.60
2018-07-23T21:33:37.894Z,43.80
2018-07-23T21:36:08.928Z,44.00
2018-07-23T21:38:42.792Z,44.60
2018-07-23T21:41:11.971Z,44.70
2018-07-23T21:43:40.828Z,44.80
2018-07-23T21:46:09.867Z,45.00
2018-07-23T21:48:38.471Z,45.10
2018-07-23T21:51:08.697Z,45.30
2018-07-23T21:53:37.437Z,45.50
2018-07-23T21:56:06.002Z,45.70
2018-07-23T21:58:34.751Z,45.90
2018-07-23T22:01:18.533Z,46.70
2018-07-23T22:03:48.131Z,46.20
2018-07-23T22:06:20.990Z,46.40
2018-07-23T22:08:49.444Z,46.50
2018-07-23T22:11:18.843Z,46.60
2018-07-23T22:13:47.894Z,46.90
2018-07-23T22:16:16.466Z,47.10
2018-07-23T22:18:56.939Z,47.40
2018-07-23T22:21:25.472Z,47.30
2018-07-23T22:26:24.142Z,47.20
2018-07-23T22:28:58.299Z,47.20
2018-07-23T22:31:29.012Z,47.40
2018-07-23T22:33:58.150Z,47.70
2018-07-23T22:36:31.590Z,47.90
2018-07-23T22:39:00.690Z,48.00
2018-07-23T22:41:30.824Z,48.10
2018-07-23T22:43:59.301Z,48.10
2018-07-23T22:46:28.164Z,48.30
2018-07-23T22:48:57.338Z,48.50
2018-07-23T22:51:25.882Z,48.70
2018-07-23T22:53:55.182Z,48.80
2018-07-23T22:58:54.960Z,49.10
2018-07-23T23:01:24.618Z,49.30
2018-07-23T23:03:54.809Z,49.50
2018-07-23T23:06:23.842Z,49.90
2018-07-23T23:08:52.889Z,50.20
2018-07-23T23:11:22.188Z,50.20
2018-07-23T23:13:51.226Z,50.10
2018-07-23T23:18:49.356Z,50.50
2018-07-23T23:21:18.422Z,50.70
2018-07-23T23:23:46.880Z,51.00
2018-07-23T23:26:16.200Z,51.10
2018-07-23T23:28:45.930Z,51.10
2018-07-23T23:31:15.061Z,51.10
2018-07-23T23:33:44.938Z,51.00
2018-07-23T23:36:13.485Z,51.00
2018-07-23T23:38:44.842Z,51.00
2018-07-23T23:43:54.872Z,51.00
2018-07-23T23:46:23.538Z,50.90
2018-07-23T23:48:54.077Z,50.90
2018-07-23T23:51:22.981Z,50.80
2018-07-23T23:53:52.391Z,50.70
2018-07-23T23:56:21.193Z,51.30
2018-07-23T23:59:05.243Z,51.60
